createdAt,value
2023-01-31T00:01:29.774Z,9.60
2023-01-31T00:04:16.907Z,9.10
2023-01-31T00:07:04.115Z,9.07
2023-01-31T00:09:53.676Z,9.07
2023-01-31T00:12:40.908Z,8.60
2023-01-31T00:15:28.291Z,8.45
2023-01-31T00:18:15.427Z,8.85
2023-01-31T00:21:29.629Z,8.75
2023-01-31T00:24:19.260Z,9.55
2023-01-31T00:27:07.683Z,8.57
2023-01-31T00:29:54.731Z,9.40
2023-01-31T00:32:41.827Z,9.40
2023-01-31T00:35:30.703Z,8.57
2023-01-31T00:38:20.102Z,8.98
2023-01-31T00:41:07.357Z,8.52
2023-01-31T00:43:55.333Z,8.40
2023-01-31T00:46:42.534Z,8.07
2023-01-31T00:49:29.917Z,8.18
2023-01-31T00:52:17.176Z,8.77
2023-01-31T00:55:04.538Z,8.63
2023-01-31T00:57:51.766Z,9.38
2023-01-31T01:00:41.182Z,9.30
2023-01-31T01:03:30.854Z,9.55
2023-01-31T01:06:24.188Z,9.15
2023-01-31T01:09:11.535Z,9.30
2023-01-31T01:11:58.665Z,9.07
2023-01-31T01:14:45.937Z,9.18
2023-01-31T01:17:33.669Z,8.73
2023-01-31T01:20:20.967Z,10.02
2023-01-31T01:23:08.174Z,8.85
2023-01-31T01:25:55.367Z,9.43
2023-01-31T01:28:45.173Z,9.85
2023-01-31T01:31:32.790Z,8.95
2023-01-31T01:34:20.108Z,9.85
2023-01-31T01:37:20.102Z,9.13
2023-01-31T01:40:12.293Z,8.93
2023-01-31T01:42:59.460Z,10.13
2023-01-31T01:45:47.083Z,11.05
2023-01-31T01:48:35.461Z,11.07
2023-01-31T01:51:23.705Z,9.65
2023-01-31T01:54:18.537Z,10.32
2023-01-31T01:57:07.369Z,10.18
2023-01-31T02:00:13.969Z,11.23
2023-01-31T02:03:04.811Z,9.82
2023-01-31T02:06:04.408Z,10.50
2023-01-31T02:08:52.467Z,10.70
2023-01-31T02:11:42.775Z,11.15
2023-01-31T02:14:36.915Z,11.68
2023-01-31T02:17:24.528Z,12.27
2023-01-31T02:20:35.993Z,12.65
2023-01-31T02:23:45.076Z,11.00
2023-01-31T02:27:03.575Z,12.00
2023-01-31T02:30:18.278Z,11.80
2023-01-31T02:33:39.543Z,11.48
2023-01-31T02:36:41.700Z,12.20
2023-01-31T02:39:44.218Z,11.15
2023-01-31T02:42:56.194Z,11.52
2023-01-31T02:46:07.117Z,10.43
2023-01-31T02:49:03.128Z,12.13
2023-01-31T02:52:12.349Z,10.85
2023-01-31T02:55:43.676Z,10.25
2023-01-31T02:58:34.770Z,11.02
2023-01-31T03:01:28.058Z,10.50
2023-01-31T03:04:15.925Z,10.45
2023-01-31T03:07:17.219Z,10.40
2023-01-31T03:10:19.605Z,10.27
2023-01-31T03:13:25.557Z,11.07
2023-01-31T03:16:45.877Z,11.85
2023-01-31T03:20:11.873Z,10.82
2023-01-31T03:23:08.300Z,10.07
2023-01-31T03:26:00.361Z,10.75
2023-01-31T03:28:54.878Z,9.55
2023-01-31T03:31:49.447Z,8.77
2023-01-31T03:34:37.457Z,8.38
2023-01-31T03:37:57.549Z,8.90
2023-01-31T03:40:57.359Z,9.68
2023-01-31T03:44:09.374Z,8.43
2023-01-31T03:47:02.809Z,7.40
2023-01-31T03:49:51.772Z,8.13
2023-01-31T03:52:43.969Z,8.23
2023-01-31T03:55:54.705Z,8.80
2023-01-31T03:58:50.972Z,8.48
2023-01-31T04:01:44.966Z,10.35
2023-01-31T04:04:51.862Z,8.82
2023-01-31T04:07:40.262Z,9.43
2023-01-31T04:10:35.724Z,9.05
2023-01-31T04:13:22.927Z,9.15
2023-01-31T04:16:10.193Z,9.65
2023-01-31T04:18:59.524Z,10.80
2023-01-31T04:21:46.890Z,10.85
2023-01-31T04:24:34.225Z,10.07
2023-01-31T04:27:22.759Z,10.13
2023-01-31T04:30:11.948Z,9.48
2023-01-31T04:32:59.400Z,10.02
2023-01-31T04:35:46.694Z,10.15
2023-01-31T04:38:34.184Z,10.15
2023-01-31T04:41:21.409Z,10.48
2023-01-31T04:44:08.540Z,10.23
2023-01-31T04:46:56.274Z,10.88
2023-01-31T04:49:44.344Z,10.10
2023-01-31T04:52:33.047Z,10.30
2023-01-31T04:55:20.712Z,11.35
2023-01-31T04:58:08.729Z,10.38
2023-01-31T05:05:18.585Z,10.82
2023-01-31T05:08:06.636Z,10.00
2023-01-31T05:11:03.837Z,11.25
2023-01-31T05:13:54.339Z,11.00
2023-01-31T05:16:50.395Z,11.32
2023-01-31T05:19:37.589Z,12.20
2023-01-31T05:22:25.750Z,11.63
2023-01-31T05:25:13.096Z,11.07
2023-01-31T05:28:00.531Z,11.55
2023-01-31T05:30:47.872Z,12.10
2023-01-31T05:33:37.552Z,11.93
2023-01-31T05:36:29.531Z,12.88
2023-01-31T05:39:19.499Z,11.05
2023-01-31T05:42:09.008Z,12.77
2023-01-31T05:44:57.597Z,12.13
2023-01-31T05:47:47.660Z,14.35
2023-01-31T05:50:35.113Z,12.93
2023-01-31T05:53:25.097Z,13.18
2023-01-31T05:56:14.131Z,13.10
2023-01-31T05:59:02.876Z,14.60
2023-01-31T06:02:39.816Z,13.35
2023-01-31T06:05:29.328Z,13.02
2023-01-31T06:08:15.182Z,12.98
2023-01-31T06:11:11.276Z,13.10
2023-01-31T06:14:01.692Z,12.50
2023-01-31T06:16:54.109Z,15.73
2023-01-31T06:29:03.247Z,14.63
2023-01-31T06:37:59.934Z,13.43
2023-01-31T06:45:13.604Z,13.88
2023-01-31T07:10:43.025Z,15.48
2023-01-31T07:14:44.941Z,14.73
2023-01-31T07:18:01.208Z,14.68
2023-01-31T07:21:06.526Z,13.50
2023-01-31T07:23:56.212Z,13.52
2023-01-31T07:26:46.120Z,14.70
2023-01-31T07:29:34.595Z,15.85
2023-01-31T07:32:23.092Z,15.38
2023-01-31T07:35:16.158Z,14.82
2023-01-31T07:38:05.908Z,17.33
2023-01-31T07:40:53.364Z,15.85
2023-01-31T07:43:43.062Z,14.90
2023-01-31T07:46:32.244Z,15.77
2023-01-31T07:49:22.166Z,13.38
2023-01-31T07:52:09.645Z,13.90
2023-01-31T07:54:59.931Z,13.88
2023-01-31T07:57:47.405Z,13.05
2023-01-31T08:04:20.625Z,18.20
2023-01-31T08:07:10.579Z,11.95
2023-01-31T08:10:13.972Z,10.85
2023-01-31T08:13:03.453Z,10.75
2023-01-31T08:15:59.505Z,11.45
2023-01-31T08:18:50.289Z,10.88
2023-01-31T08:21:37.803Z,10.50
2023-01-31T08:24:26.195Z,10.82
2023-01-31T08:27:23.464Z,10.07
2023-01-31T08:30:12.597Z,10.00
2023-01-31T08:33:21.407Z,8.77
2023-01-31T08:39:49.363Z,9.95
2023-01-31T08:42:49.866Z,10.02
2023-01-31T08:45:37.420Z,8.10
2023-01-31T08:48:29.120Z,9.80
2023-01-31T08:58:51.891Z,9.57
2023-01-31T09:02:26.691Z,6.95
2023-01-31T09:05:34.832Z,7.75
2023-01-31T09:08:35.791Z,7.22
2023-01-31T09:11:42.835Z,7.47
2023-01-31T09:15:23.880Z,7.38
2023-01-31T09:29:22.243Z,6.78
2023-01-31T09:35:43.834Z,6.53
2023-01-31T09:43:02.958Z,4.88
2023-01-31T09:49:44.901Z,5.80
2023-01-31T09:52:50.124Z,6.22
2023-01-31T09:56:36.853Z,6.40
2023-01-31T10:03:55.818Z,5.57
2023-01-31T10:07:57.857Z,8.07
2023-01-31T10:17:59.188Z,7.28
2023-01-31T10:21:05.287Z,6.70
2023-01-31T10:24:00.467Z,6.35
2023-01-31T10:27:47.331Z,4.72
2023-01-31T10:31:11.539Z,6.00
2023-01-31T10:34:11.226Z,5.22
2023-01-31T10:37:44.551Z,5.82
2023-01-31T10:44:39.591Z,4.18
2023-01-31T10:48:07.728Z,4.20
2023-01-31T10:53:03.231Z,4.38
2023-01-31T10:56:08.779Z,4.03
2023-01-31T10:58:34.317Z,4.22
2023-01-31T11:02:31.029Z,4.07
2023-01-31T11:09:57.791Z,4.35
2023-01-31T11:13:40.579Z,4.38
2023-01-31T12:04:51.811Z,3.63
2023-01-31T12:08:29.141Z,3.70
2023-01-31T12:19:05.070Z,4.43
2023-01-31T12:22:32.387Z,3.67
2023-01-31T12:25:40.999Z,3.65
2023-01-31T12:28:39.673Z,4.13
2023-01-31T12:32:10.951Z,4.00
2023-01-31T12:35:30.212Z,5.05
2023-01-31T12:39:04.830Z,6.05
2023-01-31T12:46:29.629Z,4.07
2023-01-31T12:49:54.088Z,5.43
2023-01-31T12:53:30.766Z,5.03
2023-01-31T12:56:47.268Z,4.13
2023-01-31T12:59:55.257Z,4.57
2023-01-31T13:07:30.163Z,5.13
2023-01-31T13:14:27.277Z,4.40
2023-01-31T13:18:06.592Z,4.47
2023-01-31T13:28:50.611Z,4.80
2023-01-31T13:32:01.907Z,5.13
2023-01-31T13:34:54.921Z,4.95
2023-01-31T13:37:47.669Z,4.53
2023-01-31T13:44:56.513Z,4.88
2023-01-31T13:48:14.073Z,4.95
2023-01-31T13:54:58.029Z,5.15
2023-01-31T13:58:07.176Z,4.82
2023-01-31T14:01:27.984Z,5.93
2023-01-31T14:04:15.800Z,5.55
2023-01-31T14:07:14.738Z,4.68
2023-01-31T14:10:25.709Z,4.88
2023-01-31T14:13:32.000Z,5.50
2023-01-31T14:16:46.435Z,5.28
2023-01-31T14:19:52.875Z,5.85
2023-01-31T14:22:44.599Z,5.70
2023-01-31T14:25:44.484Z,6.45
2023-01-31T14:28:43.023Z,6.07
2023-01-31T14:34:58.813Z,5.97
2023-01-31T14:38:19.297Z,5.43
2023-01-31T14:42:00.648Z,6.50
2023-01-31T14:45:00.331Z,5.28
2023-01-31T14:48:33.305Z,5.53
2023-01-31T14:51:41.763Z,5.63
2023-01-31T14:54:46.056Z,6.30
2023-01-31T14:58:16.341Z,6.82
2023-01-31T15:01:24.230Z,5.82
2023-01-31T15:04:41.702Z,5.53
2023-01-31T15:07:37.400Z,6.03
2023-01-31T15:14:55.365Z,6.18
2023-01-31T15:18:06.875Z,6.30
2023-01-31T15:21:05.654Z,5.25
2023-01-31T15:24:04.096Z,6.80
2023-01-31T15:26:57.908Z,5.55
2023-01-31T15:30:25.997Z,6.28
2023-01-31T15:42:08.305Z,8.50
2023-01-31T15:45:17.565Z,6.80
2023-01-31T15:48:30.734Z,5.63
2023-01-31T15:51:23.716Z,5.30
2023-01-31T15:54:21.124Z,4.90
2023-01-31T15:57:18.302Z,5.40
2023-01-31T16:00:10.457Z,4.50
2023-01-31T16:03:05.122Z,9.48
2023-01-31T16:05:59.967Z,5.47
2023-01-31T16:08:52.962Z,5.38
2023-01-31T16:11:40.535Z,6.43
2023-01-31T16:14:33.556Z,4.97
2023-01-31T16:17:24.827Z,5.30
2023-01-31T16:20:34.848Z,6.43
2023-01-31T16:23:27.978Z,6.00
2023-01-31T16:26:27.798Z,5.00
2023-01-31T16:29:21.608Z,5.85
2023-01-31T16:32:33.832Z,5.32
2023-01-31T16:35:27.667Z,6.05
2023-01-31T16:38:28.083Z,7.75
2023-01-31T16:41:47.559Z,5.82
2023-01-31T16:44:42.563Z,5.57
2023-01-31T16:47:50.451Z,5.75
2023-01-31T16:51:02.143Z,5.55
2023-01-31T16:54:14.208Z,6.32
2023-01-31T16:57:06.102Z,5.57
2023-01-31T16:59:54.669Z,5.93
2023-01-31T17:02:42.310Z,6.40
2023-01-31T17:05:56.551Z,6.03
2023-01-31T17:08:46.594Z,5.85
2023-01-31T17:11:42.608Z,6.03
2023-01-31T17:14:33.319Z,5.38
2023-01-31T17:17:22.079Z,5.97
2023-01-31T17:20:24.012Z,5.93
2023-01-31T17:23:14.214Z,5.78
2023-01-31T17:26:02.535Z,6.45
2023-01-31T17:29:00.802Z,6.40
2023-01-31T17:31:49.652Z,7.13
2023-01-31T17:34:49.654Z,6.07
2023-01-31T17:37:38.627Z,6.53
2023-01-31T17:40:55.201Z,6.53
2023-01-31T17:43:46.198Z,6.03
2023-01-31T17:46:35.097Z,6.65
2023-01-31T17:49:24.605Z,7.20
2023-01-31T17:52:13.844Z,5.78
2023-01-31T17:55:01.829Z,6.60
2023-01-31T17:57:49.838Z,6.75
2023-01-31T18:00:41.147Z,7.82
2023-01-31T18:03:30.162Z,7.03
2023-01-31T18:06:18.062Z,6.60
2023-01-31T18:09:16.089Z,7.35
2023-01-31T18:12:09.010Z,7.93
2023-01-31T18:15:00.235Z,7.47
2023-01-31T18:17:47.666Z,8.88
2023-01-31T18:20:42.742Z,7.63
2023-01-31T18:23:35.417Z,8.73
2023-01-31T18:30:02.356Z,7.72
2023-01-31T18:33:32.811Z,7.37
2023-01-31T18:36:37.667Z,8.07
2023-01-31T18:39:25.416Z,7.47
2023-01-31T18:42:15.871Z,8.13
2023-01-31T18:45:05.260Z,8.07
2023-01-31T18:47:55.531Z,6.88
2023-01-31T18:50:43.237Z,6.40
2023-01-31T18:53:39.429Z,8.30
2023-01-31T18:56:27.145Z,8.57
2023-01-31T18:59:14.689Z,8.10
2023-01-31T19:02:02.244Z,7.50
2023-01-31T19:04:50.087Z,7.30
2023-01-31T19:07:39.886Z,7.47
2023-01-31T19:10:27.528Z,7.50
2023-01-31T19:13:18.576Z,6.68
2023-01-31T19:16:09.627Z,7.72
2023-01-31T19:18:57.926Z,7.72
2023-01-31T19:21:48.053Z,8.95
2023-01-31T19:24:40.157Z,8.05
2023-01-31T19:27:28.228Z,6.85
2023-01-31T19:30:22.175Z,7.60
2023-01-31T19:33:10.168Z,7.65
2023-01-31T19:35:57.621Z,6.05
2023-01-31T19:38:45.676Z,7.30
2023-01-31T19:41:33.519Z,7.13
2023-01-31T19:44:24.312Z,6.82
2023-01-31T19:47:13.418Z,7.05
2023-01-31T19:50:01.196Z,8.50
2023-01-31T19:52:49.481Z,6.68
2023-01-31T19:55:37.267Z,8.80
2023-01-31T19:58:33.898Z,7.80
2023-01-31T20:01:24.022Z,8.93
2023-01-31T20:04:13.715Z,8.25
2023-01-31T20:07:01.317Z,10.13
2023-01-31T20:09:58.279Z,11.02
2023-01-31T20:12:48.498Z,8.82
2023-01-31T20:15:40.002Z,8.05
2023-01-31T20:18:28.011Z,8.68
2023-01-31T20:21:20.096Z,12.13
2023-01-31T20:24:14.795Z,11.52
2023-01-31T20:27:19.096Z,7.97
2023-01-31T20:30:09.857Z,9.65
2023-01-31T20:33:00.102Z,7.93
2023-01-31T20:35:48.244Z,9.32
2023-01-31T20:38:38.846Z,8.27
2023-01-31T20:41:27.401Z,8.45
2023-01-31T20:44:20.007Z,8.82
2023-01-31T20:47:07.596Z,8.65
2023-01-31T20:49:55.147Z,8.52
2023-01-31T20:52:43.547Z,8.18
2023-01-31T20:55:34.007Z,8.15
2023-01-31T20:58:23.924Z,9.48
2023-01-31T21:01:12.612Z,8.10
2023-01-31T21:04:05.522Z,8.07
2023-01-31T21:06:54.676Z,7.60
2023-01-31T21:09:43.338Z,7.60
2023-01-31T21:12:30.859Z,7.53
2023-01-31T21:15:18.555Z,7.57
2023-01-31T21:18:07.543Z,7.15
2023-01-31T21:20:55.896Z,6.70
2023-01-31T21:23:44.769Z,7.80
2023-01-31T21:26:32.192Z,6.97
2023-01-31T21:29:20.153Z,7.68
2023-01-31T21:32:07.540Z,8.82
2023-01-31T21:34:55.144Z,8.32
2023-01-31T21:37:42.788Z,7.47
2023-01-31T21:40:30.207Z,8.02
2023-01-31T21:49:37.404Z,9.05
2023-01-31T21:52:30.688Z,8.52
2023-01-31T21:55:18.596Z,8.40
2023-01-31T21:58:06.069Z,8.85
2023-01-31T22:00:54.745Z,8.88
2023-01-31T22:03:45.343Z,8.40
2023-01-31T22:06:43.689Z,8.57
2023-01-31T22:09:31.229Z,7.32
2023-01-31T22:12:18.412Z,7.75
2023-01-31T22:15:09.196Z,8.27
2023-01-31T22:17:56.508Z,8.27
2023-01-31T22:20:43.694Z,8.65
2023-01-31T22:27:24.161Z,8.85
2023-01-31T22:30:16.503Z,9.48
2023-01-31T22:33:04.579Z,9.15
2023-01-31T22:35:52.104Z,8.70
2023-01-31T22:38:41.766Z,8.65
2023-01-31T22:41:29.464Z,10.02
2023-01-31T22:44:16.881Z,9.65
2023-01-31T22:47:04.407Z,9.80
2023-01-31T22:49:51.608Z,9.27
2023-01-31T22:52:38.848Z,9.55
2023-01-31T22:55:32.124Z,10.98
2023-01-31T22:58:20.271Z,10.40
2023-01-31T23:01:23.057Z,10.50
2023-01-31T23:07:00.975Z,10.40
2023-01-31T23:09:51.221Z,11.48
2023-01-31T23:12:43.060Z,11.52
2023-01-31T23:15:33.974Z,12.90
2023-01-31T23:18:21.292Z,11.52
2023-01-31T23:21:18.041Z,13.40
2023-01-31T23:24:08.204Z,14.10
2023-01-31T23:26:58.451Z,12.45
2023-01-31T23:29:46.004Z,12.88
2023-01-31T23:32:42.979Z,13.10
2023-01-31T23:35:30.627Z,13.02
2023-01-31T23:38:17.907Z,13.90
2023-01-31T23:41:05.457Z,14.15
2023-01-31T23:43:55.223Z,12.95
2023-01-31T23:46:42.414Z,14.45
2023-01-31T23:49:31.787Z,14.65
2023-01-31T23:52:18.983Z,15.45
2023-01-31T23:55:07.185Z,13.05
2023-01-31T23:57:56.284Z,13.63
